sensor_id;sensor_type;location;lat;lon;timestamp;pressure;altitude;pressure_sealevel;temperature;humidity
27712;BME280;2377;51.734;8.950;2023-04-28T00:01:19;97778.19;;;8.89;54.31
27712;BME280;2377;51.734;8.950;2023-04-28T00:03:46;97769.97;;;8.87;54.42
27712;BME280;2377;51.734;8.950;2023-04-28T00:06:13;97766.63;;;8.87;54.63
27712;BME280;2377;51.734;8.950;2023-04-28T00:08:41;97755.09;;;8.84;54.27
27712;BME280;2377;51.734;8.950;2023-04-28T00:11:08;97768.19;;;8.88;54.25
27712;BME280;2377;51.734;8.950;2023-04-28T00:13:36;97765.63;;;8.88;53.80
27712;BME280;2377;51.734;8.950;2023-04-28T00:16:03;97765.63;;;8.88;54.44
27712;BME280;2377;51.734;8.950;2023-04-28T00:18:30;97764.66;;;8.89;53.98
27712;BME280;2377;51.734;8.950;2023-04-28T00:20:57;97755.63;;;8.86;54.17
27712;BME280;2377;51.734;8.950;2023-04-28T00:23:25;97755.84;;;8.85;54.85
27712;BME280;2377;51.734;8.950;2023-04-28T00:25:54;97753.09;;;8.86;54.75
27712;BME280;2377;51.734;8.950;2023-04-28T00:28:22;97746.25;;;8.87;54.47
27712;BME280;2377;51.734;8.950;2023-04-28T00:30:49;97746.25;;;8.87;55.04
27712;BME280;2377;51.734;8.950;2023-04-28T00:33:16;97740.56;;;8.85;55.21
27712;BME280;2377;51.734;8.950;2023-04-28T00:35:43;97731.91;;;8.86;54.83
27712;BME280;2377;51.734;8.950;2023-04-28T00:38:10;97737.78;;;8.86;54.41
27712;BME280;2377;51.734;8.950;2023-04-28T00:40:38;97731.75;;;8.81;54.59
27712;BME280;2377;51.734;8.950;2023-04-28T00:43:07;97719.78;;;8.81;55.62
27712;BME280;2377;51.734;8.950;2023-04-28T00:45:33;97733.13;;;8.83;54.99
27712;BME280;2377;51.734;8.950;2023-04-28T00:48:01;97724.69;;;8.83;55.02
27712;BME280;2377;51.734;8.950;2023-04-28T00:50:28;97728.00;;;8.83;54.78
27712;BME280;2377;51.734;8.950;2023-04-28T00:52:55;97725.06;;;8.86;54.72
27712;BME280;2377;51.734;8.950;2023-04-28T00:55:25;97717.63;;;8.85;54.97
27712;BME280;2377;51.734;8.950;2023-04-28T00:57:54;97714.31;;;8.84;54.91
27712;BME280;2377;51.734;8.950;2023-04-28T01:00:23;97716.03;;;8.84;55.03
27712;BME280;2377;51.734;8.950;2023-04-28T01:02:51;97715.06;;;8.85;55.19
27712;BME280;2377;51.734;8.950;2023-04-28T01:05:19;97719.41;;;8.84;55.39
27712;BME280;2377;51.734;8.950;2023-04-28T01:07:46;97705.84;;;8.84;55.44
27712;BME280;2377;51.734;8.950;2023-04-28T01:10:13;97702.34;;;8.85;54.82
27712;BME280;2377;51.734;8.950;2023-04-28T01:12:40;97699.56;;;8.86;55.08
27712;BME280;2377;51.734;8.950;2023-04-28T01:15:15;97706.84;;;8.83;55.86
27712;BME280;2377;51.734;8.950;2023-04-28T01:17:44;97704.88;;;8.85;55.32
27712;BME280;2377;51.734;8.950;2023-04-28T01:20:11;97708.00;;;8.87;55.38
27712;BME280;2377;51.734;8.950;2023-04-28T01:22:38;97715.25;;;8.90;55.85
27712;BME280;2377;51.734;8.950;2023-04-28T01:25:08;97712.69;;;8.90;55.43
27712;BME280;2377;51.734;8.950;2023-04-28T01:27:34;97709.16;;;8.91;55.06
27712;BME280;2377;51.734;8.950;2023-04-28T01:30:02;97704.06;;;8.91;54.89
27712;BME280;2377;51.734;8.950;2023-04-28T01:32:29;97706.41;;;8.93;55.59
27712;BME280;2377;51.734;8.950;2023-04-28T01:34:55;97701.50;;;8.91;55.84
27712;BME280;2377;51.734;8.950;2023-04-28T01:37:22;97692.13;;;8.92;55.95
27712;BME280;2377;51.734;8.950;2023-04-28T01:39:50;97684.28;;;8.86;56.13
27712;BME280;2377;51.734;8.950;2023-04-28T01:42:18;97686.81;;;8.86;55.83
27712;BME280;2377;51.734;8.950;2023-04-28T01:44:45;97679.19;;;8.86;56.37
27712;BME280;2377;51.734;8.950;2023-04-28T01:47:11;97680.94;;;8.86;56.18
27712;BME280;2377;51.734;8.950;2023-04-28T01:49:38;97678.22;;;8.87;55.87
27712;BME280;2377;51.734;8.950;2023-04-28T01:52:05;97676.63;;;8.86;56.46
27712;BME280;2377;51.734;8.950;2023-04-28T01:54:32;97671.34;;;8.88;55.90
27712;BME280;2377;51.734;8.950;2023-04-28T01:56:59;97681.53;;;8.88;56.00
27712;BME280;2377;51.734;8.950;2023-04-28T01:59:28;97681.53;;;8.88;55.82
27712;BME280;2377;51.734;8.950;2023-04-28T02:01:55;97679.59;;;8.83;56.49
27712;BME280;2377;51.734;8.950;2023-04-28T02:04:22;97677.28;;;8.82;56.42
27712;BME280;2377;51.734;8.950;2023-04-28T02:06:48;97666.84;;;8.83;56.37
27712;BME280;2377;51.734;8.950;2023-04-28T02:09:15;97663.34;;;8.84;56.43
27712;BME280;2377;51.734;8.950;2023-04-28T02:11:42;97662.53;;;8.84;56.12
27712;BME280;2377;51.734;8.950;2023-04-28T02:14:09;97664.09;;;8.85;56.71
27712;BME280;2377;51.734;8.950;2023-04-28T02:16:37;97660.97;;;8.83;56.61
27712;BME280;2377;51.734;8.950;2023-04-28T02:19:04;97659.00;;;8.85;57.49
27712;BME280;2377;51.734;8.950;2023-04-28T02:21:31;97653.13;;;8.84;56.60
27712;BME280;2377;51.734;8.950;2023-04-28T02:23:58;97654.88;;;8.84;56.99
27712;BME280;2377;51.734;8.950;2023-04-28T02:26:25;97647.25;;;8.84;57.13
27712;BME280;2377;51.734;8.950;2023-04-28T02:28:52;97651.38;;;8.85;57.62
27712;BME280;2377;51.734;8.950;2023-04-28T02:31:20;97651.56;;;8.83;56.67
27712;BME280;2377;51.734;8.950;2023-04-28T02:33:48;97642.94;;;8.84;57.17
27712;BME280;2377;51.734;8.950;2023-04-28T02:36:15;97630.97;;;8.85;57.81
27712;BME280;2377;51.734;8.950;2023-04-28T02:38:42;97635.06;;;8.86;57.29
27712;BME280;2377;51.734;8.950;2023-04-28T02:41:09;97635.84;;;8.86;57.69
27712;BME280;2377;51.734;8.950;2023-04-28T02:43:37;97636.66;;;8.87;58.07
27712;BME280;2377;51.734;8.950;2023-04-28T02:46:04;97633.53;;;8.85;57.88
27712;BME280;2377;51.734;8.950;2023-04-28T02:48:32;97629.41;;;8.84;57.91
27712;BME280;2377;51.734;8.950;2023-04-28T02:51:02;97630.41;;;8.83;58.65
27712;BME280;2377;51.734;8.950;2023-04-28T02:53:29;97630.19;;;8.84;57.97
27712;BME280;2377;51.734;8.950;2023-04-28T02:55:56;97630.41;;;8.83;58.91
27712;BME280;2377;51.734;8.950;2023-04-28T02:58:24;97622.16;;;8.81;58.18
27712;BME280;2377;51.734;8.950;2023-04-28T03:00:51;97625.31;;;8.83;57.86
27712;BME280;2377;51.734;8.950;2023-04-28T03:03:18;97623.75;;;8.82;57.80
27712;BME280;2377;51.734;8.950;2023-04-28T03:05:45;97618.22;;;8.85;58.04
27712;BME280;2377;51.734;8.950;2023-04-28T03:08:13;97613.13;;;8.85;58.39
27712;BME280;2377;51.734;8.950;2023-04-28T03:10:40;97605.28;;;8.86;58.24
27712;BME280;2377;51.734;8.950;2023-04-28T03:13:06;97606.06;;;8.87;57.70
27712;BME280;2377;51.734;8.950;2023-04-28T03:15:33;97602.91;;;8.92;58.15
27712;BME280;2377;51.734;8.950;2023-04-28T03:18:00;97600.34;;;8.92;58.18
27712;BME280;2377;51.734;8.950;2023-04-28T03:20:27;97597.00;;;8.91;58.64
27712;BME280;2377;51.734;8.950;2023-04-28T03:22:54;97594.47;;;8.91;58.33
27712;BME280;2377;51.734;8.950;2023-04-28T03:25:23;97589.94;;;8.93;58.39
27712;BME280;2377;51.734;8.950;2023-04-28T03:27:49;97588.38;;;8.92;58.64
27712;BME280;2377;51.734;8.950;2023-04-28T03:30:16;97586.03;;;8.91;58.79
27712;BME280;2377;51.734;8.950;2023-04-28T03:32:43;97574.66;;;8.93;58.56
27712;BME280;2377;51.734;8.950;2023-04-28T03:35:10;97584.44;;;8.96;58.86
27712;BME280;2377;51.734;8.950;2023-04-28T03:37:37;97573.66;;;8.94;58.79
27712;BME280;2377;51.734;8.950;2023-04-28T03:40:06;97585.22;;;8.97;58.61
27712;BME280;2377;51.734;8.950;2023-04-28T03:42:34;97571.47;;;8.98;59.07
27712;BME280;2377;51.734;8.950;2023-04-28T03:45:01;97572.06;;;9.00;58.94
27712;BME280;2377;51.734;8.950;2023-04-28T03:47:28;97569.31;;;9.01;58.84
27712;BME280;2377;51.734;8.950;2023-04-28T03:49:55;97573.81;;;8.99;59.10
27712;BME280;2377;51.734;8.950;2023-04-28T03:52:23;97572.06;;;9.00;58.71
27712;BME280;2377;51.734;8.950;2023-04-28T03:54:50;97561.09;;;8.99;58.78
27712;BME280;2377;51.734;8.950;2023-04-28T03:57:17;97562.28;;;8.97;58.83
27712;BME280;2377;51.734;8.950;2023-04-28T03:59:45;97565.19;;;9.00;59.25
27712;BME280;2377;51.734;8.950;2023-04-28T04:02:12;97559.31;;;9.00;59.47
27712;BME280;2377;51.734;8.950;2023-04-28T04:04:39;97557.53;;;9.00;59.25
27712;BME280;2377;51.734;8.950;2023-04-28T04:07:06;97557.34;;;9.02;59.66
27712;BME280;2377;51.734;8.950;2023-04-28T04:09:33;97555.78;;;9.01;59.74
27712;BME280;2377;51.734;8.950;2023-04-28T04:12:00;97559.69;;;9.03;59.76
27712;BME280;2377;51.734;8.950;2023-04-28T04:14:27;97557.34;;;9.02;59.54
27712;BME280;2377;51.734;8.950;2023-04-28T04:16:55;97559.88;;;9.02;59.21
27712;BME280;2377;51.734;8.950;2023-04-28T04:19:22;97555.97;;;8.99;59.46
27712;BME280;2377;51.734;8.950;2023-04-28T04:21:51;97559.50;;;8.98;60.04
27712;BME280;2377;51.734;8.950;2023-04-28T04:24:18;97555.41;;;8.97;59.87
27712;BME280;2377;51.734;8.950;2023-04-28T04:26:45;97558.97;;;8.96;59.84
27712;BME280;2377;51.734;8.950;2023-04-28T04:29:11;97555.59;;;8.96;60.52
27712;BME280;2377;51.734;8.950;2023-04-28T04:31:38;97558.97;;;8.96;60.27
27712;BME280;2377;51.734;8.950;2023-04-28T04:34:07;97559.94;;;8.95;60.39
27712;BME280;2377;51.734;8.950;2023-04-28T04:36:33;97564.44;;;8.93;60.81
27712;BME280;2377;51.734;8.950;2023-04-28T04:39:00;97568.94;;;8.98;60.49
27712;BME280;2377;51.734;8.950;2023-04-28T04:41:27;97569.50;;;9.00;60.12
27712;BME280;2377;51.734;8.950;2023-04-28T04:43:54;97567.53;;;9.02;60.61
27712;BME280;2377;51.734;8.950;2023-04-28T04:46:22;97560.88;;;9.01;60.42
27712;BME280;2377;51.734;8.950;2023-04-28T04:48:48;97558.09;;;9.02;60.25
27712;BME280;2377;51.734;8.950;2023-04-28T04:51:17;97560.47;;;9.04;60.96
27712;BME280;2377;51.734;8.950;2023-04-28T04:53:43;97557.34;;;9.02;61.14
27712;BME280;2377;51.734;8.950;2023-04-28T04:56:10;97554.97;;;9.00;61.80
27712;BME280;2377;51.734;8.950;2023-04-28T04:58:37;97553.44;;;8.99;62.30
27712;BME280;2377;51.734;8.950;2023-04-28T05:01:05;97550.69;;;9.01;61.90
27712;BME280;2377;51.734;8.950;2023-04-28T05:03:32;97552.81;;;9.04;63.07
27712;BME280;2377;51.734;8.950;2023-04-28T05:06:02;97551.47;;;9.01;62.83
27712;BME280;2377;51.734;8.950;2023-04-28T05:08:30;97551.84;;;8.98;63.22
27712;BME280;2377;51.734;8.950;2023-04-28T05:10:57;97554.22;;;9.00;63.97
27712;BME280;2377;51.734;8.950;2023-04-28T05:13:24;97553.00;;;9.02;64.56
27712;BME280;2377;51.734;8.950;2023-04-28T05:15:51;97549.06;;;9.06;65.14
27712;BME280;2377;51.734;8.950;2023-04-28T05:18:17;97546.09;;;9.09;64.61
27712;BME280;2377;51.734;8.950;2023-04-28T05:20:44;97534.50;;;9.14;65.14
27712;BME280;2377;51.734;8.950;2023-04-28T05:23:11;97535.63;;;9.18;65.18
27712;BME280;2377;51.734;8.950;2023-04-28T05:25:39;97526.22;;;9.18;65.65
27712;BME280;2377;51.734;8.950;2023-04-28T05:28:09;97546.41;;;9.20;66.02
27712;BME280;2377;51.734;8.950;2023-04-28T05:30:36;97532.47;;;9.22;65.65
27712;BME280;2377;51.734;8.950;2023-04-28T05:33:03;97527.56;;;9.21;66.03
27712;BME280;2377;51.734;8.950;2023-04-28T05:35:29;97508.22;;;9.13;67.70
27712;BME280;2377;51.734;8.950;2023-04-28T05:37:57;97507.84;;;9.09;67.72
27712;BME280;2377;51.734;8.950;2023-04-28T05:40:24;97502.75;;;9.09;68.06
27712;BME280;2377;51.734;8.950;2023-04-28T05:42:54;97508.84;;;9.08;69.15
27712;BME280;2377;51.734;8.950;2023-04-28T05:45:21;97514.53;;;9.10;69.53
27712;BME280;2377;51.734;8.950;2023-04-28T05:47:48;97517.66;;;9.13;69.03
27712;BME280;2377;51.734;8.950;2023-04-28T05:50:15;97520.53;;;9.16;69.11
27712;BME280;2377;51.734;8.950;2023-04-28T05:52:42;97511.69;;;9.19;68.92
27712;BME280;2377;51.734;8.950;2023-04-28T05:55:09;97517.16;;;9.22;69.60
27712;BME280;2377;51.734;8.950;2023-04-28T05:57:37;97517.09;;;9.29;69.16
27712;BME280;2377;51.734;8.950;2023-04-28T06:00:07;97521.41;;;9.28;68.82
27712;BME280;2377;51.734;8.950;2023-04-28T06:02:33;97515.66;;;9.33;69.41
27712;BME280;2377;51.734;8.950;2023-04-28T06:05:00;97517.81;;;9.36;69.00
27712;BME280;2377;51.734;8.950;2023-04-28T06:07:27;97519.78;;;9.34;69.65
27712;BME280;2377;51.734;8.950;2023-04-28T06:09:54;97517.81;;;9.36;69.18
27712;BME280;2377;51.734;8.950;2023-04-28T06:12:21;97512.28;;;9.39;69.55
27712;BME280;2377;51.734;8.950;2023-04-28T06:14:48;97515.19;;;9.43;69.30
27712;BME280;2377;51.734;8.950;2023-04-28T06:17:18;97511.78;;;9.49;70.26
27712;BME280;2377;51.734;8.950;2023-04-28T06:19:45;97515.13;;;9.49;70.50
27712;BME280;2377;51.734;8.950;2023-04-28T06:22:12;97521.34;;;9.53;70.46
27712;BME280;2377;51.734;8.950;2023-04-28T06:24:39;97526.59;;;9.59;70.03
27712;BME280;2377;51.734;8.950;2023-04-28T06:27:06;97522.63;;;9.63;70.81
27712;BME280;2377;51.734;8.950;2023-04-28T06:29:33;97525.00;;;9.64;70.71
27712;BME280;2377;51.734;8.950;2023-04-28T06:32:00;97528.31;;;9.65;70.77
27712;BME280;2377;51.734;8.950;2023-04-28T06:34:28;97523.34;;;9.70;71.35
27712;BME280;2377;51.734;8.950;2023-04-28T06:36:57;97521.50;;;9.77;71.47
27712;BME280;2377;51.734;8.950;2023-04-28T06:39:24;97524.19;;;9.82;72.09
27712;BME280;2377;51.734;8.950;2023-04-28T06:41:51;97521.75;;;9.87;71.42
27712;BME280;2377;51.734;8.950;2023-04-28T06:44:18;97520.34;;;9.91;71.69
27712;BME280;2377;51.734;8.950;2023-04-28T06:46:45;97520.91;;;9.93;72.44
27712;BME280;2377;51.734;8.950;2023-04-28T06:49:12;97528.13;;;9.97;72.30
27712;BME280;2377;51.734;8.950;2023-04-28T06:51:40;97525.59;;;9.97;74.22
27712;BME280;2377;51.734;8.950;2023-04-28T06:54:07;97525.38;;;9.98;73.96
27712;BME280;2377;51.734;8.950;2023-04-28T06:56:35;97524.38;;;9.99;74.14
27712;BME280;2377;51.734;8.950;2023-04-28T06:59:01;97514.53;;;10.03;74.62
27712;BME280;2377;51.734;8.950;2023-04-28T07:01:29;97506.41;;;10.06;74.21
27712;BME280;2377;51.734;8.950;2023-04-28T07:03:55;97499.44;;;10.13;74.51
27712;BME280;2377;51.734;8.950;2023-04-28T07:06:22;97485.25;;;10.17;74.81
27712;BME280;2377;51.734;8.950;2023-04-28T07:08:53;97475.94;;;10.23;74.90
27712;BME280;2377;51.734;8.950;2023-04-28T07:11:20;97464.50;;;10.25;76.07
27712;BME280;2377;51.734;8.950;2023-04-28T07:13:48;97468.22;;;10.29;76.61
27712;BME280;2377;51.734;8.950;2023-04-28T07:16:16;97463.22;;;10.34;76.77
27712;BME280;2377;51.734;8.950;2023-04-28T07:18:43;97462.38;;;10.41;76.92
27712;BME280;2377;51.734;8.950;2023-04-28T07:21:10;97467.59;;;10.46;77.13
27712;BME280;2377;51.734;8.950;2023-04-28T07:23:37;97469.28;;;10.52;77.04
27712;BME280;2377;51.734;8.950;2023-04-28T07:26:06;97470.16;;;10.57;76.64
27712;BME280;2377;51.734;8.950;2023-04-28T07:28:34;97474.63;;;10.62;76.96
27712;BME280;2377;51.734;8.950;2023-04-28T07:31:01;97481.41;;;10.68;76.73
27712;BME280;2377;51.734;8.950;2023-04-28T07:33:27;97479.19;;;10.72;76.40
27712;BME280;2377;51.734;8.950;2023-04-28T07:35:54;97479.53;;;10.75;76.48
27712;BME280;2377;51.734;8.950;2023-04-28T07:38:21;97484.19;;;10.78;77.17
27712;BME280;2377;51.734;8.950;2023-04-28T07:40:48;97475.53;;;10.79;76.54
27712;BME280;2377;51.734;8.950;2023-04-28T07:43:17;97481.75;;;10.84;76.69
27712;BME280;2377;51.734;8.950;2023-04-28T07:45:44;97472.31;;;10.84;76.71
27712;BME280;2377;51.734;8.950;2023-04-28T07:48:13;97478.31;;;10.90;76.96
27712;BME280;2377;51.734;8.950;2023-04-28T07:50:40;97472.97;;;10.91;76.91
27712;BME280;2377;51.734;8.950;2023-04-28T07:53:07;97461.06;;;10.97;77.40
27712;BME280;2377;51.734;8.950;2023-04-28T07:55:34;97450.28;;;11.07;77.91
27712;BME280;2377;51.734;8.950;2023-04-28T07:58:02;97450.06;;;11.20;78.16
27712;BME280;2377;51.734;8.950;2023-04-28T08:00:30;97453.81;;;11.29;78.08
27712;BME280;2377;51.734;8.950;2023-04-28T08:02:57;97451.25;;;11.41;77.76
27712;BME280;2377;51.734;8.950;2023-04-28T08:05:24;97452.66;;;11.49;77.50
27712;BME280;2377;51.734;8.950;2023-04-28T08:07:51;97459.19;;;11.56;76.73
27712;BME280;2377;51.734;8.950;2023-04-28T08:10:19;97461.31;;;11.59;76.96
27712;BME280;2377;51.734;8.950;2023-04-28T08:12:46;97465.09;;;11.57;76.69
27712;BME280;2377;51.734;8.950;2023-04-28T08:15:13;97465.44;;;11.60;76.54
27712;BME280;2377;51.734;8.950;2023-04-28T08:17:41;97463.19;;;11.64;76.37
27712;BME280;2377;51.734;8.950;2023-04-28T08:20:09;97460.19;;;11.67;76.41
27712;BME280;2377;51.734;8.950;2023-04-28T08:22:36;97457.06;;;11.65;76.12
27712;BME280;2377;51.734;8.950;2023-04-28T08:25:04;97458.59;;;11.66;76.26
27712;BME280;2377;51.734;8.950;2023-04-28T08:27:31;97452.81;;;11.71;76.45
27712;BME280;2377;51.734;8.950;2023-04-28T08:29:58;97452.72;;;11.66;76.49
27712;BME280;2377;51.734;8.950;2023-04-28T08:32:25;97450.16;;;11.66;76.95
27712;BME280;2377;51.734;8.950;2023-04-28T08:34:53;97440.25;;;11.69;76.99
27712;BME280;2377;51.734;8.950;2023-04-28T08:37:20;97435.00;;;11.76;77.34
27712;BME280;2377;51.734;8.950;2023-04-28T08:39:47;97430.63;;;11.88;77.18
27712;BME280;2377;51.734;8.950;2023-04-28T08:42:15;97435.91;;;11.98;77.00
27712;BME280;2377;51.734;8.950;2023-04-28T08:44:44;97438.56;;;12.03;76.30
27712;BME280;2377;51.734;8.950;2023-04-28T08:47:13;97428.09;;;12.05;76.06
27712;BME280;2377;51.734;8.950;2023-04-28T08:49:40;97423.81;;;12.11;76.51
27712;BME280;2377;51.734;8.950;2023-04-28T08:52:12;97425.41;;;12.12;76.43
27712;BME280;2377;51.734;8.950;2023-04-28T08:54:43;97424.28;;;12.08;76.58
27712;BME280;2377;51.734;8.950;2023-04-28T08:57:13;97422.50;;;12.08;77.08
27712;BME280;2377;51.734;8.950;2023-04-28T08:59:40;97425.63;;;12.10;76.44
27712;BME280;2377;51.734;8.950;2023-04-28T09:02:07;97425.41;;;12.12;76.98
27712;BME280;2377;51.734;8.950;2023-04-28T09:04:35;97427.31;;;12.04;76.83
27712;BME280;2377;51.734;8.950;2023-04-28T09:07:02;97430.03;;;11.98;76.56
27712;BME280;2377;51.734;8.950;2023-04-28T09:09:31;97425.69;;;11.98;77.14
27712;BME280;2377;51.734;8.950;2023-04-28T09:11:59;97431.34;;;12.00;77.86
27712;BME280;2377;51.734;8.950;2023-04-28T09:14:29;97427.31;;;12.04;78.13
27712;BME280;2377;51.734;8.950;2023-04-28T09:16:57;97430.97;;;12.09;77.93
27712;BME280;2377;51.734;8.950;2023-04-28T09:19:32;97435.94;;;12.15;78.80
27712;BME280;2377;51.734;8.950;2023-04-28T09:22:00;97442.63;;;12.16;77.72
27712;BME280;2377;51.734;8.950;2023-04-28T09:24:30;97430.50;;;12.12;78.24
27712;BME280;2377;51.734;8.950;2023-04-28T09:26:58;97426.94;;;12.13;78.14
27712;BME280;2377;51.734;8.950;2023-04-28T09:29:26;97430.38;;;12.18;79.08
27712;BME280;2377;51.734;8.950;2023-04-28T09:31:54;97425.25;;;12.18;79.70
27712;BME280;2377;51.734;8.950;2023-04-28T09:34:42;97436.28;;;12.19;79.30
27712;BME280;2377;51.734;8.950;2023-04-28T09:37:15;97448.53;;;12.17;79.07
27712;BME280;2377;51.734;8.950;2023-04-28T09:39:45;97442.31;;;12.13;79.91
27712;BME280;2377;51.734;8.950;2023-04-28T09:42:34;97442.78;;;12.10;80.57
27712;BME280;2377;51.734;8.950;2023-04-28T09:45:03;97440.44;;;12.08;81.04
27712;BME280;2377;51.734;8.950;2023-04-28T09:47:32;97439.81;;;12.01;82.76
27712;BME280;2377;51.734;8.950;2023-04-28T09:50:02;97433.34;;;11.98;82.25
27712;BME280;2377;51.734;8.950;2023-04-28T09:52:29;97425.75;;;12.03;82.51
27712;BME280;2377;51.734;8.950;2023-04-28T09:55:01;97422.50;;;12.08;82.28
27712;BME280;2377;51.734;8.950;2023-04-28T09:57:32;97424.06;;;12.09;82.34
27712;BME280;2377;51.734;8.950;2023-04-28T10:00:00;97420.28;;;12.12;82.05
27712;BME280;2377;51.734;8.950;2023-04-28T10:02:31;97417.47;;;12.13;82.46
27712;BME280;2377;51.734;8.950;2023-04-28T10:04:58;97418.00;;;12.15;82.34
27712;BME280;2377;51.734;8.950;2023-04-28T10:07:26;97422.69;;;12.18;82.04
27712;BME280;2377;51.734;8.950;2023-04-28T10:09:55;97419.94;;;12.25;82.49
27712;BME280;2377;51.734;8.950;2023-04-28T10:12:24;97410.78;;;12.29;82.39
27712;BME280;2377;51.734;8.950;2023-04-28T10:14:51;97408.00;;;12.31;82.82
27712;BME280;2377;51.734;8.950;2023-04-28T10:17:21;97410.19;;;12.39;82.51
27712;BME280;2377;51.734;8.950;2023-04-28T10:19:52;97415.16;;;12.45;83.57
27712;BME280;2377;51.734;8.950;2023-04-28T10:22:46;97420.34;;;12.51;82.80
27712;BME280;2377;51.734;8.950;2023-04-28T10:25:27;97409.63;;;12.54;82.86
27712;BME280;2377;51.734;8.950;2023-04-28T10:27:58;97396.34;;;12.57;82.95
27712;BME280;2377;51.734;8.950;2023-04-28T10:30:26;97398.38;;;12.55;82.76
27712;BME280;2377;51.734;8.950;2023-04-28T10:33:22;97396.56;;;12.55;82.83
27712;BME280;2377;51.734;8.950;2023-04-28T10:35:50;97391.22;;;12.57;82.22
27712;BME280;2377;51.734;8.950;2023-04-28T10:38:19;97382.50;;;12.58;82.28
27712;BME280;2377;51.734;8.950;2023-04-28T10:40:48;97377.22;;;12.64;81.50
27712;BME280;2377;51.734;8.950;2023-04-28T10:43:34;97371.59;;;12.67;81.50
27712;BME280;2377;51.734;8.950;2023-04-28T10:46:08;97377.38;;;12.75;81.20
27712;BME280;2377;51.734;8.950;2023-04-28T10:48:56;97379.63;;;12.71;80.94
27712;BME280;2377;51.734;8.950;2023-04-28T10:51:31;97384.75;;;12.71;81.01
27712;BME280;2377;51.734;8.950;2023-04-28T10:54:15;97389.94;;;12.76;80.69
27712;BME280;2377;51.734;8.950;2023-04-28T10:57:17;97382.00;;;12.78;80.70
27712;BME280;2377;51.734;8.950;2023-04-28T10:59:46;97382.31;;;12.81;80.02
27712;BME280;2377;51.734;8.950;2023-04-28T11:02:38;97379.84;;;12.86;80.40
27712;BME280;2377;51.734;8.950;2023-04-28T11:05:17;97384.53;;;12.95;81.05
27712;BME280;2377;51.734;8.950;2023-04-28T11:08:32;97381.03;;;13.01;81.94
27712;BME280;2377;51.734;8.950;2023-04-28T11:11:23;97374.69;;;13.08;81.11
27712;BME280;2377;51.734;8.950;2023-04-28T11:13:52;97377.56;;;13.12;81.17
27712;BME280;2377;51.734;8.950;2023-04-28T11:16:23;97383.28;;;13.19;80.85
27712;BME280;2377;51.734;8.950;2023-04-28T11:18:55;97382.09;;;13.27;80.84
27712;BME280;2377;51.734;8.950;2023-04-28T11:21:25;97370.44;;;13.36;80.71
27712;BME280;2377;51.734;8.950;2023-04-28T11:23:54;97379.00;;;13.47;80.35
27712;BME280;2377;51.734;8.950;2023-04-28T11:26:21;97374.41;;;13.49;79.73
27712;BME280;2377;51.734;8.950;2023-04-28T11:28:51;97381.88;;;13.50;79.92
27712;BME280;2377;51.734;8.950;2023-04-28T11:31:23;97378.53;;;13.50;79.55
27712;BME280;2377;51.734;8.950;2023-04-28T11:33:59;97375.97;;;13.50;79.77
27712;BME280;2377;51.734;8.950;2023-04-28T11:36:32;97377.50;;;13.51;79.85
27712;BME280;2377;51.734;8.950;2023-04-28T11:39:01;97368.53;;;13.53;79.16
27712;BME280;2377;51.734;8.950;2023-04-28T11:41:32;97370.69;;;13.62;79.71
27712;BME280;2377;51.734;8.950;2023-04-28T11:43:59;97371.53;;;13.72;79.35
27712;BME280;2377;51.734;8.950;2023-04-28T11:46:28;97375.44;;;13.80;79.19
27712;BME280;2377;51.734;8.950;2023-04-28T11:49:03;97374.00;;;13.89;79.46
27712;BME280;2377;51.734;8.950;2023-04-28T11:51:33;97365.09;;;13.97;79.35
27712;BME280;2377;51.734;8.950;2023-04-28T11:54:01;97358.25;;;14.13;78.72
27712;BME280;2377;51.734;8.950;2023-04-28T11:56:29;97359.06;;;14.19;78.03
27712;BME280;2377;51.734;8.950;2023-04-28T11:59:02;97357.34;;;14.29;78.81
27712;BME280;2377;51.734;8.950;2023-04-28T12:01:31;97347.91;;;14.40;79.54
27712;BME280;2377;51.734;8.950;2023-04-28T12:03:59;97350.28;;;14.52;78.98
27712;BME280;2377;51.734;8.950;2023-04-28T12:06:26;97363.44;;;14.55;78.82
27712;BME280;2377;51.734;8.950;2023-04-28T12:08:54;97355.66;;;14.50;77.71
27712;BME280;2377;51.734;8.950;2023-04-28T12:11:22;97352.56;;;14.48;77.74
27712;BME280;2377;51.734;8.950;2023-04-28T12:14:06;97349.75;;;14.50;77.68
27712;BME280;2377;51.734;8.950;2023-04-28T12:16:43;97349.81;;;14.55;78.05
27712;BME280;2377;51.734;8.950;2023-04-28T12:19:11;97347.53;;;14.58;77.61
27712;BME280;2377;51.734;8.950;2023-04-28T12:21:40;97348.84;;;14.66;77.37
27712;BME280;2377;51.734;8.950;2023-04-28T12:24:16;97344.53;;;14.77;77.63
27712;BME280;2377;51.734;8.950;2023-04-28T12:26:43;97346.63;;;14.85;76.63
27712;BME280;2377;51.734;8.950;2023-04-28T12:29:34;97347.69;;;14.94;78.26
27712;BME280;2377;51.734;8.950;2023-04-28T12:32:05;97344.13;;;15.06;77.34
27712;BME280;2377;51.734;8.950;2023-04-28T12:34:32;97341.34;;;15.22;77.51
27712;BME280;2377;51.734;8.950;2023-04-28T12:37:00;97340.88;;;15.36;77.94
27712;BME280;2377;51.734;8.950;2023-04-28T12:39:31;97339.34;;;15.45;77.40
27712;BME280;2377;51.734;8.950;2023-04-28T12:41:59;97337.78;;;15.54;78.18
27712;BME280;2377;51.734;8.950;2023-04-28T12:44:27;97334.97;;;15.56;76.70
27712;BME280;2377;51.734;8.950;2023-04-28T12:47:06;97332.41;;;15.61;76.29
27712;BME280;2377;51.734;8.950;2023-04-28T12:49:34;97334.47;;;15.69;76.65
27712;BME280;2377;51.734;8.950;2023-04-28T12:52:02;97333.97;;;15.82;78.13
27712;BME280;2377;51.734;8.950;2023-04-28T12:54:29;97326.25;;;15.98;77.75
27712;BME280;2377;51.734;8.950;2023-04-28T12:56:56;97331.66;;;16.17;76.48
27712;BME280;2377;51.734;8.950;2023-04-28T12:59:23;97328.00;;;16.38;76.70
27712;BME280;2377;51.734;8.950;2023-04-28T13:01:50;97336.47;;;16.59;74.49
27712;BME280;2377;51.734;8.950;2023-04-28T13:04:18;97332.84;;;16.65;74.03
27712;BME280;2377;51.734;8.950;2023-04-28T13:06:46;97332.31;;;16.68;73.06
27712;BME280;2377;51.734;8.950;2023-04-28T13:09:14;97336.47;;;16.59;74.24
27712;BME280;2377;51.734;8.950;2023-04-28T13:11:42;97335.97;;;16.52;74.13
27712;BME280;2377;51.734;8.950;2023-04-28T13:14:09;97334.94;;;16.48;74.00
27712;BME280;2377;51.734;8.950;2023-04-28T13:16:36;97335.47;;;16.45;73.85
27712;BME280;2377;51.734;8.950;2023-04-28T13:19:03;97335.72;;;16.43;72.35
27712;BME280;2377;51.734;8.950;2023-04-28T13:21:35;97326.19;;;16.49;72.45
27712;BME280;2377;51.734;8.950;2023-04-28T13:24:04;97324.88;;;16.52;73.01
27712;BME280;2377;51.734;8.950;2023-04-28T13:26:31;97322.53;;;16.55;72.25